Details for Ryanair at LIBR




Go Back


Latest METAR
Local Time

LIBR 221750Z 10006KT CAVOK 22/19 Q1014

22/05/2018, 19:58:29

Description
Results
Ryanair Logo
Number of Pilots based at LIBR
0 Pilots Based here
Number of Ryanair Flights Departed from LIBR
1 Flights Departed
Number of Ryanair Flights Arrived at LIBR
1 Flights Arrived
Number of Ryanair Schedules Departing from LIBR
24 Schedules
Number of Ryanair Schedules Arriving at LIBR
24 Schedules
Number of Ryanair Schedules Departing from LIBR availible today
12 Schedules Today
Number of Ryanair Schedules Arriving at LIBR availible today
12 Schedules Today
Average Landing Rate at LIBR
-136 fpm
Ryanair Average Landing Rate at LIBR
-136 fpm
Total Fuel Purchased at LIBR by Ryanair
3,801.31 kgs / 8,380.37 lbs

Pilots Based at LIBR


Pilot ID
Pilot Name
Pilot Rank
No. of Flights
No. of Flying Hours
There are no pilots assigned to this hub!   Will you be the first?
Content